Skip Navigation Links
NOAA logo - Click to go to the NOAA homepage
NOAA's National Weather Service
Alaska Aviation Weather Unit
  NWS logo - Click to go to the NWS homepage
Left Navbar Graphic     21 AKDT = 05 GMT

   
NOAA is celebrating 200 years of science, service, and stewardship. Visit the NOAA 200th celebration Web site to learn more.
USA.gov is the U.S. Government's official Web portal to all Federal, state and local government Web resources and services.
Facebook
NWS on Facebook

Important Change Regarding the AAWU Web Presence

 

Over the last several months, the AAWU has been working to navigate its webpages to a nationally supported server. Security, as well as other needs, have necessitated the change.  In the process, we have made an effort to enhance the functionality of our website, as well as some of our products. As of June 27, 2017, aawu.arh.noaa.gov will be discontinued. The new AAWU web address is weather.gov/aawu. It is now live and will run in-parallel with the old site until it is discontinued. Please send any feedback or questions regarding the new webpages to nws.ar.aawu.webauthors@noaa.gov.  Thank you for your patience during this time of transition.
AAWU Home :: Display TAF Add Bookmark
TAF PASD 260308Z 2603/2624 17014G20KT 3SM -RA BR SCT005 OVC010
      TEMPO 2603/2606 2SM -RA BR OVC005
     FM260600 17010KT 3SM -RA BR SCT005 OVC010
     FM260900 17008KT 5SM BR OVC015
      AMD LTD TO CLD VIS AND WIND=
SPECI PASD 252309Z 17014G21KT 2SM -RA BR SCT006 BKN012 OVC018 09/08
     A2986 RMK AO2 VIS LWR SE-SW P0001 $=

SPECI PASD 252334Z 17014G23KT 1 3/4SM -RA BR BKN008 OVC013 09/08 A2985
     RMK AO2 VIS NW 2 P0002 $=

SPECI PASD 252336Z 17016G23KT 1 3/4SM -RA BR BKN008 OVC013 09/08
 A2984 RMK AO2 VIS NW 2 P0002 $=

METAR PASD 252356Z 16013G24KT 7SM -RA SCT009 BKN014 OVC021 09/08 A2984
     RMK AO2 SLP106 VIS LWR SE-SW P0003 60019 T00890078 10089
     20083 58028 $=

SPECI PASD 260006Z 17014G23KT 3SM -RA BR SCT008 OVC012 09/08 A2984 RMK
     AO2 P0000 $=

SPECI PASD 260008Z 17014G22KT 3SM -RA BR SCT008 OVC012 09/08 A2983 RMK
     AO2 P0000 $=

PASD 260035Z AUTO 17014G26KT 3SM -RA BR SCT006 OVC010 09/08 A2982
     RMK AO2 PK WND 16026/0030 P0001 $=

METAR PASD 260056Z 17015G20KT 3SM -RA BR SCT005 OVC010 09/08 A2981 RMK
     AO2 PK WND 16026/0030 SLP099 PK WND 16026/0030 P0002
     T00890083 $=

METAR PASD 260156Z 17012G17KT 3SM -RA BR SCT005 OVC011 09/08 A2980
 RMK AO2 SLP092 P0003 T00890083 $=

METAR PASD 260256Z 17015G21KT 3SM -RA BR SCT005 OVC011 09/08 A2978 RMK
     AO2 SLP086 LAST P0002 60007 T00890083 56020 $=

SPECI PASD 260303Z 17014G21KT 2SM -RA BR OVC005 09/08 A2978 RMK AO2 VIS
     1 3/4V3 LAST P0001=

SPECI PASD 260315Z AUTO 18014KT 4SM -RA BR BKN003 OVC008 09/08 A2978 RMK
     AO2 LAST P0001=

METAR PASD 260456Z AUTO 18009KT 5SM -RA BR OVC003 08/08 A2977 RMK
 AO2 SLP082 P0000 T00830083=


NOAA's National Weather Service
Alaska Aviation Weather Unit
6930 Sand Lake Road
Anchorage, AK 99502-1845
Disclaimer
Credits
Glossary
Privacy Policy
About Us
Career Opportunities
Contact AAWU Internet Services Site last modified: April, 17th 2012